createdAt,value
2018-10-18T00:00:09.231Z,14.97
2018-10-18T00:02:02.156Z,14.93
2018-10-18T00:03:02.086Z,14.97
2018-10-18T00:04:55.457Z,14.97
2018-10-18T00:05:55.478Z,14.99
2018-10-18T00:07:48.320Z,14.92
2018-10-18T00:08:48.295Z,14.92
2018-10-18T00:10:41.259Z,14.92
2018-10-18T00:11:41.174Z,14.82
2018-10-18T00:13:34.061Z,14.83
2018-10-18T00:14:34.032Z,14.82
2018-10-18T00:16:27.429Z,14.79
2018-10-18T00:17:27.402Z,14.83
2018-10-18T00:19:20.788Z,14.82
2018-10-18T00:20:20.763Z,14.83
2018-10-18T00:22:14.153Z,14.82
2018-10-18T00:23:14.130Z,14.74
2018-10-18T00:25:07.510Z,14.71
2018-10-18T00:26:07.584Z,14.70
2018-10-18T00:28:01.398Z,14.63
2018-10-18T00:29:00.364Z,14.61
2018-10-18T00:30:53.251Z,14.66
2018-10-18T00:31:53.236Z,14.64
2018-10-18T00:33:46.117Z,14.63
2018-10-18T00:34:46.077Z,14.71
2018-10-18T00:36:38.997Z,14.63
2018-10-18T00:37:38.985Z,14.53
2018-10-18T00:39:32.365Z,14.52
2018-10-18T00:40:32.338Z,14.53
2018-10-18T00:42:25.729Z,14.55
2018-10-18T00:43:25.704Z,14.58
2018-10-18T00:45:18.602Z,14.58
2018-10-18T00:46:18.569Z,14.51
2018-10-18T00:48:11.530Z,14.53
2018-10-18T00:49:11.436Z,14.55
2018-10-18T00:51:04.331Z,14.56
2018-10-18T00:52:04.301Z,14.53
2018-10-18T00:53:57.216Z,14.53
2018-10-18T00:54:57.167Z,14.59
2018-10-18T00:56:50.063Z,14.58
2018-10-18T00:57:50.032Z,14.52
2018-10-18T00:59:42.926Z,14.44
2018-10-18T01:00:42.896Z,14.46
2018-10-18T01:02:35.783Z,14.38
2018-10-18T01:03:35.757Z,14.38
2018-10-18T01:05:28.653Z,14.44
2018-10-18T01:06:28.625Z,14.36
2018-10-18T01:08:21.515Z,14.30
2018-10-18T01:09:21.494Z,14.34
2018-10-18T01:11:14.412Z,14.30
2018-10-18T01:12:14.449Z,14.30
2018-10-18T01:14:07.325Z,14.28
2018-10-18T01:15:07.229Z,14.28
2018-10-18T01:17:00.190Z,14.36
2018-10-18T01:18:00.140Z,14.28
2018-10-18T01:19:52.998Z,14.27
2018-10-18T01:20:52.961Z,14.30
2018-10-18T01:22:46.345Z,14.26
2018-10-18T01:23:46.322Z,14.23
2018-10-18T01:25:39.219Z,14.31
2018-10-18T01:26:39.193Z,14.26
2018-10-18T01:28:32.589Z,14.34
2018-10-18T01:29:32.564Z,14.26
2018-10-18T01:31:25.447Z,14.33
2018-10-18T01:32:25.425Z,14.33
2018-10-18T01:34:18.817Z,14.38
2018-10-18T01:35:18.790Z,14.36
2018-10-18T01:37:11.683Z,14.33
2018-10-18T01:38:11.730Z,14.33
2018-10-18T01:40:04.546Z,14.31
2018-10-18T01:41:04.515Z,14.34
2018-10-18T01:42:57.409Z,14.45
2018-10-18T01:43:57.426Z,14.45
2018-10-18T01:45:50.277Z,14.55
2018-10-18T01:46:50.248Z,14.53
2018-10-18T01:48:43.133Z,14.56
2018-10-18T01:49:43.113Z,14.52
2018-10-18T01:51:35.996Z,14.66
2018-10-18T01:52:35.971Z,14.69
2018-10-18T01:54:28.869Z,14.74
2018-10-18T01:55:28.837Z,14.73
2018-10-18T01:57:21.746Z,14.79
2018-10-18T01:58:21.719Z,14.89
2018-10-18T02:00:14.674Z,14.96
2018-10-18T02:01:14.586Z,14.97
2018-10-18T02:03:07.968Z,15.01
2018-10-18T02:04:07.944Z,14.97
2018-10-18T02:06:01.970Z,15.10
2018-10-18T02:07:01.304Z,15.12
2018-10-18T02:08:54.212Z,15.10
2018-10-18T02:09:54.175Z,15.10
2018-10-18T02:11:47.054Z,15.08
2018-10-18T02:12:47.036Z,15.15
2018-10-18T02:14:39.929Z,15.14
2018-10-18T02:15:39.906Z,15.14
2018-10-18T02:17:32.800Z,15.23
2018-10-18T02:18:32.775Z,15.26
2018-10-18T02:20:25.667Z,15.26
2018-10-18T02:21:25.641Z,15.23
2018-10-18T02:23:19.033Z,15.25
2018-10-18T02:24:19.006Z,15.33
2018-10-18T02:26:11.975Z,15.36
2018-10-18T02:27:11.881Z,15.43
2018-10-18T02:29:05.277Z,15.44
2018-10-18T02:30:05.271Z,15.33
2018-10-18T02:31:58.639Z,15.33
2018-10-18T02:32:58.607Z,15.38
2018-10-18T02:34:51.517Z,15.30
2018-10-18T02:35:51.516Z,15.33
2018-10-18T02:37:44.891Z,15.44
2018-10-18T02:38:44.872Z,15.41
2018-10-18T02:40:38.255Z,15.41
2018-10-18T02:41:38.234Z,15.40
2018-10-18T02:43:31.123Z,15.43
2018-10-18T02:44:31.094Z,15.41
2018-10-18T02:46:23.992Z,15.50
2018-10-18T02:47:23.969Z,15.40
2018-10-18T02:49:17.348Z,15.38
2018-10-18T02:50:17.321Z,15.40
2018-10-18T02:52:10.215Z,15.47
2018-10-18T02:53:10.186Z,15.44
2018-10-18T02:55:03.094Z,15.47
2018-10-18T02:56:03.071Z,15.41
2018-10-18T02:57:56.476Z,15.40
2018-10-18T02:58:56.430Z,15.41
2018-10-18T03:00:49.324Z,15.48
2018-10-18T03:01:49.295Z,15.48
2018-10-18T03:03:42.688Z,15.50
2018-10-18T03:04:42.660Z,15.51
2018-10-18T03:06:36.039Z,15.52
2018-10-18T03:07:36.024Z,15.50
2018-10-18T03:09:28.914Z,15.51
2018-10-18T03:10:28.893Z,15.51
2018-10-18T03:12:22.358Z,15.58
2018-10-18T03:13:22.248Z,15.54
2018-10-18T03:15:15.138Z,15.60
2018-10-18T03:16:15.198Z,15.59
2018-10-18T03:18:08.575Z,15.63
2018-10-18T03:19:08.481Z,15.54
2018-10-18T03:21:01.371Z,15.56
2018-10-18T03:22:01.340Z,15.58
2018-10-18T03:23:54.279Z,15.59
2018-10-18T03:24:54.219Z,15.60
2018-10-18T03:26:47.113Z,15.52
2018-10-18T03:27:47.085Z,15.59
2018-10-18T03:29:39.980Z,15.58
2018-10-18T03:30:39.954Z,15.56
2018-10-18T03:32:33.336Z,15.60
2018-10-18T03:33:33.316Z,15.52
2018-10-18T03:35:26.199Z,15.60
2018-10-18T03:36:26.189Z,15.54
2018-10-18T03:38:19.582Z,15.59
2018-10-18T03:39:19.543Z,15.54
2018-10-18T03:41:12.435Z,15.60
2018-10-18T03:42:12.489Z,15.65
2018-10-18T03:44:05.315Z,15.62
2018-10-18T03:45:05.301Z,15.58
2018-10-18T03:46:58.674Z,15.56
2018-10-18T03:47:58.703Z,15.54
2018-10-18T03:49:52.035Z,15.54
2018-10-18T03:50:52.002Z,15.48
2018-10-18T03:52:44.892Z,15.51
2018-10-18T03:53:44.873Z,15.50
2018-10-18T03:55:37.773Z,15.48
2018-10-18T03:56:37.740Z,15.56
2018-10-18T03:58:31.143Z,15.51
2018-10-18T03:59:31.161Z,15.63
2018-10-18T04:01:24.006Z,15.52
2018-10-18T04:02:23.982Z,15.51
2018-10-18T04:04:17.382Z,15.58
2018-10-18T04:05:17.354Z,15.60
2018-10-18T04:07:10.739Z,15.66
2018-10-18T04:08:10.717Z,15.60
2018-10-18T04:10:03.612Z,15.66
2018-10-18T04:11:03.585Z,15.63
2018-10-18T04:12:57.127Z,15.66
2018-10-18T04:13:56.947Z,15.66
2018-10-18T04:15:49.829Z,15.72
2018-10-18T04:16:49.806Z,15.66
2018-10-18T04:18:42.709Z,15.78
2018-10-18T04:19:42.675Z,15.72
2018-10-18T04:21:36.058Z,15.72
2018-10-18T04:22:36.037Z,15.69
2018-10-18T04:24:28.922Z,15.63
2018-10-18T04:25:28.962Z,15.68
2018-10-18T04:27:21.801Z,15.59
2018-10-18T04:28:21.780Z,15.59
2018-10-18T04:30:15.290Z,15.59
2018-10-18T04:31:15.137Z,15.52
2018-10-18T04:33:08.025Z,15.56
2018-10-18T04:34:08.008Z,15.54
2018-10-18T04:36:00.918Z,15.66
2018-10-18T04:37:00.866Z,15.52
2018-10-18T04:38:53.770Z,15.60
2018-10-18T04:39:53.743Z,15.56
2018-10-18T04:41:47.127Z,15.54
2018-10-18T04:42:47.100Z,15.54
2018-10-18T04:44:40.493Z,15.52
2018-10-18T04:45:40.477Z,15.51
2018-10-18T04:47:33.385Z,15.62
2018-10-18T04:48:33.441Z,15.58
2018-10-18T04:50:26.224Z,15.51
2018-10-18T04:51:26.207Z,15.58
2018-10-18T04:53:19.597Z,15.52
2018-10-18T04:54:19.565Z,15.51
2018-10-18T04:56:12.951Z,15.60
2018-10-18T04:57:12.929Z,15.62
2018-10-18T04:59:06.314Z,15.68
2018-10-18T05:00:06.283Z,15.56
2018-10-18T05:01:59.726Z,15.66
2018-10-18T05:02:59.168Z,15.62
2018-10-18T05:04:52.601Z,15.70
2018-10-18T05:05:52.538Z,15.68
2018-10-18T05:07:45.918Z,15.72
2018-10-18T05:08:45.908Z,15.78
2018-10-18T05:10:38.792Z,15.76
2018-10-18T05:11:38.763Z,15.73
2018-10-18T05:13:31.659Z,15.69
2018-10-18T05:14:31.638Z,15.72
2018-10-18T05:16:24.529Z,15.76
2018-10-18T05:17:24.502Z,15.73
2018-10-18T05:19:17.509Z,15.68
2018-10-18T05:20:17.368Z,15.77
2018-10-18T05:22:10.263Z,15.77
2018-10-18T05:23:10.234Z,15.80
2018-10-18T05:25:03.225Z,15.87
2018-10-18T05:26:03.102Z,15.83
2018-10-18T05:27:57.492Z,15.83
2018-10-18T05:28:57.465Z,15.85
2018-10-18T05:30:50.850Z,15.85
2018-10-18T05:31:50.916Z,15.81
2018-10-18T05:33:43.722Z,15.91
2018-10-18T05:34:43.702Z,15.84
2018-10-18T05:36:36.586Z,15.84
2018-10-18T05:37:36.591Z,15.85
2018-10-18T05:39:29.506Z,15.96
2018-10-18T05:40:29.423Z,16.00
2018-10-18T05:42:22.805Z,15.99
2018-10-18T05:43:22.787Z,16.03
2018-10-18T05:45:16.180Z,15.90
2018-10-18T05:46:16.163Z,15.91
2018-10-18T05:48:09.183Z,15.91
2018-10-18T05:49:09.239Z,16.02
2018-10-18T05:51:02.548Z,16.03
2018-10-18T05:52:02.518Z,16.09
2018-10-18T05:53:55.494Z,16.02
2018-10-18T05:54:55.448Z,15.98
2018-10-18T05:56:48.281Z,16.02
2018-10-18T05:57:48.253Z,16.09
2018-10-18T05:59:41.643Z,16.08
2018-10-18T06:00:41.616Z,16.06
2018-10-18T06:02:34.514Z,16.09
2018-10-18T06:03:34.484Z,16.17
2018-10-18T06:05:27.381Z,16.16
2018-10-18T06:06:27.357Z,16.14
2018-10-18T06:08:20.741Z,16.14
2018-10-18T06:09:20.719Z,16.18
2018-10-18T06:11:13.613Z,16.17
2018-10-18T06:12:13.591Z,16.17
2018-10-18T06:14:06.487Z,16.22
2018-10-18T06:15:06.464Z,16.18
2018-10-18T06:16:59.367Z,16.18
2018-10-18T06:17:59.327Z,16.22
2018-10-18T06:19:52.229Z,16.24
2018-10-18T06:20:52.212Z,16.25
2018-10-18T06:22:45.146Z,16.29
2018-10-18T06:23:45.068Z,16.25
2018-10-18T06:25:37.967Z,16.26
2018-10-18T06:26:37.938Z,16.36
2018-10-18T06:28:31.324Z,16.37
2018-10-18T06:29:31.295Z,16.26
2018-10-18T06:31:24.195Z,16.43
2018-10-18T06:32:24.172Z,16.32
2018-10-18T06:34:17.062Z,16.36
2018-10-18T06:35:17.039Z,16.44
2018-10-18T06:37:10.468Z,16.37
2018-10-18T06:38:10.404Z,16.34
2018-10-18T06:40:03.300Z,16.34
2018-10-18T06:41:03.327Z,16.36
2018-10-18T06:42:56.191Z,16.39
2018-10-18T06:43:56.142Z,16.42
2018-10-18T06:45:49.032Z,16.39
2018-10-18T06:46:49.069Z,16.36
2018-10-18T06:48:41.910Z,16.36
2018-10-18T06:49:42.465Z,16.39
2018-10-18T06:51:35.350Z,16.32
2018-10-18T06:52:35.254Z,16.37
2018-10-18T06:54:28.158Z,16.36
2018-10-18T06:55:28.122Z,16.37
2018-10-18T06:57:21.020Z,16.36
2018-10-18T06:58:20.988Z,16.40
2018-10-18T07:00:13.963Z,16.40
2018-10-18T07:01:13.858Z,16.26
2018-10-18T07:03:06.755Z,16.39
2018-10-18T07:04:06.729Z,16.36
2018-10-18T07:05:59.644Z,16.29
2018-10-18T07:06:59.593Z,16.37
2018-10-18T07:08:52.499Z,16.39
2018-10-18T07:09:52.461Z,16.36
2018-10-18T07:11:45.366Z,16.42
2018-10-18T07:12:45.337Z,16.46
2018-10-18T07:14:38.257Z,16.37
2018-10-18T07:15:38.200Z,16.36
2018-10-18T07:17:31.108Z,16.36
2018-10-18T07:18:31.080Z,16.37
2018-10-18T07:20:23.971Z,16.42
2018-10-18T07:21:23.943Z,16.44
2018-10-18T07:23:16.841Z,16.34
2018-10-18T07:24:16.900Z,16.44
2018-10-18T07:26:09.765Z,16.47
2018-10-18T07:27:09.695Z,16.44
2018-10-18T07:29:03.083Z,16.47
2018-10-18T07:30:03.081Z,16.54
2018-10-18T07:31:56.001Z,16.52
2018-10-18T07:32:55.922Z,16.64
2018-10-18T07:34:49.318Z,16.67
2018-10-18T07:35:49.292Z,16.64
2018-10-18T07:37:42.696Z,16.67
2018-10-18T07:38:42.653Z,16.70
2018-10-18T07:40:35.550Z,16.73
2018-10-18T07:41:35.528Z,16.82
2018-10-18T07:43:28.913Z,16.91
2018-10-18T07:44:28.889Z,16.83
2018-10-18T07:46:22.270Z,16.92
2018-10-18T07:47:22.255Z,17.04
2018-10-18T07:49:15.149Z,16.98
2018-10-18T07:50:15.126Z,16.97
2018-10-18T07:52:08.535Z,16.95
2018-10-18T07:53:08.609Z,16.97
2018-10-18T07:55:01.387Z,16.97
2018-10-18T07:56:01.939Z,16.97
2018-10-18T07:57:54.269Z,16.97
2018-10-18T07:58:54.240Z,17.06
2018-10-18T08:00:47.822Z,17.12
2018-10-18T08:01:47.606Z,17.09
2018-10-18T08:03:41.002Z,17.07
2018-10-18T08:04:40.978Z,17.10
2018-10-18T08:06:33.878Z,17.20
2018-10-18T08:07:33.852Z,17.22
2018-10-18T08:09:26.751Z,17.22
2018-10-18T08:10:26.731Z,17.16
2018-10-18T08:12:19.632Z,17.27
2018-10-18T08:13:19.678Z,17.25
2018-10-18T08:15:13.010Z,17.27
2018-10-18T08:16:12.979Z,17.34
2018-10-18T08:18:06.445Z,17.31
2018-10-18T08:19:06.411Z,17.34
2018-10-18T08:20:59.244Z,17.39
2018-10-18T08:21:59.232Z,17.34
2018-10-18T08:23:52.612Z,17.27
2018-10-18T08:24:52.601Z,17.30
2018-10-18T08:26:45.984Z,17.32
2018-10-18T08:27:45.956Z,17.31
2018-10-18T08:29:38.850Z,17.38
2018-10-18T08:30:38.839Z,17.38
2018-10-18T08:32:32.231Z,17.38
2018-10-18T08:33:32.201Z,17.37
2018-10-18T08:35:25.103Z,17.41
2018-10-18T08:36:25.082Z,17.43
2018-10-18T08:38:18.554Z,17.45
2018-10-18T08:39:18.445Z,17.56
2018-10-18T08:41:11.368Z,17.66
2018-10-18T08:42:11.323Z,17.65
2018-10-18T08:44:04.338Z,17.72
2018-10-18T08:45:04.193Z,17.66
2018-10-18T08:46:57.593Z,17.63
2018-10-18T08:47:57.579Z,17.65
2018-10-18T08:49:50.479Z,17.65
2018-10-18T08:50:50.454Z,17.59
2018-10-18T08:52:43.347Z,17.69
2018-10-18T08:53:43.322Z,17.72
2018-10-18T08:55:36.773Z,17.91
2018-10-18T08:56:36.691Z,17.91
2018-10-18T08:58:29.597Z,17.93
2018-10-18T08:59:29.564Z,17.86
2018-10-18T09:01:22.462Z,17.91
2018-10-18T09:02:22.460Z,17.91
2018-10-18T09:04:15.837Z,18.05
2018-10-18T09:05:15.805Z,17.99
2018-10-18T09:07:08.743Z,17.87
2018-10-18T09:08:08.684Z,17.93
2018-10-18T09:10:02.085Z,17.93
2018-10-18T09:11:02.063Z,17.87
2018-10-18T09:12:55.504Z,17.87
2018-10-18T09:13:55.459Z,17.91
2018-10-18T09:15:48.401Z,17.90
2018-10-18T09:16:48.360Z,17.99
2018-10-18T09:18:41.234Z,17.96
2018-10-18T09:19:41.210Z,17.94
2018-10-18T09:21:34.681Z,18.01
2018-10-18T09:22:34.083Z,17.96
2018-10-18T09:24:27.470Z,18.01
2018-10-18T09:25:27.446Z,18.11
2018-10-18T09:27:20.413Z,18.20
2018-10-18T09:28:20.339Z,18.08
2018-10-18T09:30:13.279Z,18.28
2018-10-18T09:31:13.265Z,18.24
2018-10-18T09:33:06.102Z,18.23
2018-10-18T09:34:06.071Z,18.23
2018-10-18T09:35:58.975Z,18.24
2018-10-18T09:36:58.999Z,18.21
2018-10-18T09:38:52.333Z,18.24
2018-10-18T09:39:52.314Z,18.24
2018-10-18T09:41:45.224Z,18.12
2018-10-18T09:42:45.196Z,18.17
2018-10-18T09:44:38.127Z,18.17
2018-10-18T09:45:38.079Z,18.12
2018-10-18T09:47:31.467Z,18.05
2018-10-18T09:48:31.442Z,18.03
2018-10-18T09:50:24.344Z,18.05
2018-10-18T09:51:24.320Z,18.06
2018-10-18T09:53:17.217Z,18.09
2018-10-18T09:54:17.197Z,18.06
2018-10-18T09:56:10.637Z,18.11
2018-10-18T09:57:10.565Z,18.11
2018-10-18T09:59:03.962Z,18.21
2018-10-18T10:00:03.945Z,18.20
2018-10-18T10:01:57.340Z,18.24
2018-10-18T10:02:57.313Z,18.21
2018-10-18T10:04:50.213Z,18.27
2018-10-18T10:05:50.186Z,18.45
2018-10-18T10:07:43.584Z,18.54
2018-10-18T10:08:43.563Z,18.52
2018-10-18T10:10:36.455Z,18.63
2018-10-18T10:11:36.486Z,18.60
2018-10-18T10:13:29.925Z,18.68
2018-10-18T10:14:29.803Z,18.56
2018-10-18T10:16:23.742Z,18.58
2018-10-18T10:17:23.188Z,18.54
2018-10-18T10:19:16.116Z,18.57
2018-10-18T10:20:16.065Z,18.57
2018-10-18T10:22:09.455Z,18.31
2018-10-18T10:23:09.428Z,18.27
2018-10-18T10:25:02.345Z,18.23
2018-10-18T10:26:02.307Z,18.12
2018-10-18T10:27:55.693Z,18.18
2018-10-18T10:28:55.671Z,18.09
2018-10-18T10:30:49.083Z,18.17
2018-10-18T10:31:49.046Z,18.18
2018-10-18T10:33:41.953Z,18.23
2018-10-18T10:34:41.967Z,18.23
2018-10-18T10:36:35.313Z,18.12
2018-10-18T10:37:35.301Z,18.20
2018-10-18T10:39:28.687Z,18.12
2018-10-18T10:40:28.662Z,18.09
2018-10-18T10:42:21.566Z,18.05
2018-10-18T10:43:21.534Z,18.03
2018-10-18T10:45:14.571Z,17.94
2018-10-18T10:46:14.475Z,17.99
2018-10-18T10:48:07.383Z,18.08
2018-10-18T10:49:07.304Z,18.13
2018-10-18T10:51:00.239Z,18.17
2018-10-18T10:52:00.189Z,18.02
2018-10-18T10:53:53.074Z,18.11
2018-10-18T10:54:53.040Z,18.12
2018-10-18T10:56:45.939Z,18.17
2018-10-18T10:57:45.930Z,18.13
2018-10-18T10:59:38.814Z,18.21
2018-10-18T11:00:38.785Z,18.24
2018-10-18T11:02:31.689Z,18.24
2018-10-18T11:03:31.669Z,18.30
2018-10-18T11:05:24.559Z,18.24
2018-10-18T11:06:24.540Z,18.30
2018-10-18T11:08:17.463Z,18.15
2018-10-18T11:09:17.555Z,18.20
2018-10-18T11:11:10.315Z,18.17
2018-10-18T11:12:10.379Z,18.12
2018-10-18T11:14:03.199Z,18.17
2018-10-18T11:15:03.233Z,18.21
2018-10-18T11:16:56.597Z,18.36
2018-10-18T11:17:56.598Z,18.27
2018-10-18T11:19:49.958Z,18.39
2018-10-18T11:20:49.928Z,18.39
2018-10-18T11:22:43.330Z,18.42
2018-10-18T11:23:43.294Z,18.43
2018-10-18T11:25:36.197Z,18.39
2018-10-18T11:26:36.175Z,18.42
2018-10-18T11:28:29.076Z,18.49
2018-10-18T11:29:29.048Z,18.52
2018-10-18T11:31:22.439Z,18.54
2018-10-18T11:32:22.434Z,18.54
2018-10-18T11:34:15.391Z,18.64
2018-10-18T11:35:15.293Z,18.71
2018-10-18T11:37:09.233Z,18.68
2018-10-18T11:38:08.714Z,18.86
2018-10-18T11:40:01.574Z,18.89
2018-10-18T11:41:01.542Z,18.93
2018-10-18T11:42:54.454Z,19.05
2018-10-18T11:43:54.479Z,19.09
2018-10-18T11:45:47.324Z,19.05
2018-10-18T11:46:47.314Z,19.08
2018-10-18T11:48:40.204Z,19.01
2018-10-18T11:49:40.182Z,19.08
2018-10-18T11:51:33.179Z,19.08
2018-10-18T11:52:33.055Z,19.19
2018-10-18T11:54:25.948Z,19.23
2018-10-18T11:55:25.930Z,19.24
2018-10-18T11:57:19.319Z,19.37
2018-10-18T11:58:19.295Z,19.30
2018-10-18T12:00:12.202Z,19.38
2018-10-18T12:01:12.265Z,19.42
2018-10-18T12:03:05.596Z,19.52
2018-10-18T12:04:05.562Z,19.52
2018-10-18T12:05:58.459Z,19.52
2018-10-18T12:06:58.441Z,19.50
2018-10-18T12:08:51.339Z,19.62
2018-10-18T12:09:51.315Z,19.56
2018-10-18T12:11:44.219Z,19.42
2018-10-18T12:12:44.189Z,19.42
2018-10-18T12:14:37.582Z,19.50
2018-10-18T12:15:37.570Z,19.56
2018-10-18T12:17:31.542Z,19.57
2018-10-18T12:18:30.944Z,19.59
2018-10-18T12:20:23.835Z,19.59
2018-10-18T12:21:23.812Z,19.56
2018-10-18T12:23:17.273Z,19.67
2018-10-18T12:24:17.188Z,19.63
2018-10-18T12:26:10.224Z,19.56
2018-10-18T12:27:10.073Z,19.54
2018-10-18T12:29:03.000Z,19.57
2018-10-18T12:30:02.956Z,19.56
2018-10-18T12:31:55.917Z,19.62
2018-10-18T12:32:55.841Z,19.64
2018-10-18T12:34:48.736Z,19.63
2018-10-18T12:35:48.718Z,19.63
2018-10-18T12:37:42.101Z,19.60
2018-10-18T12:38:42.095Z,19.60
2018-10-18T12:40:35.156Z,19.59
2018-10-18T12:41:35.227Z,19.59
2018-10-18T12:43:27.875Z,19.59
2018-10-18T12:44:27.855Z,19.57
2018-10-18T12:46:20.751Z,19.50
2018-10-18T12:47:20.727Z,19.54
2018-10-18T12:49:13.628Z,19.62
2018-10-18T12:50:13.743Z,19.59
2018-10-18T12:52:06.995Z,19.62
2018-10-18T12:53:06.977Z,19.63
2018-10-18T12:55:00.385Z,19.41
2018-10-18T12:56:00.364Z,19.42
2018-10-18T12:57:53.737Z,19.42
2018-10-18T12:58:53.716Z,19.57
2018-10-18T13:00:47.186Z,19.56
2018-10-18T13:01:46.632Z,19.57
2018-10-18T13:03:40.005Z,19.56
2018-10-18T13:04:39.975Z,19.52
2018-10-18T13:06:33.441Z,19.57
2018-10-18T13:07:32.954Z,19.59
2018-10-18T13:09:25.859Z,19.60
2018-10-18T13:10:25.832Z,19.68
2018-10-18T13:12:18.843Z,19.67
2018-10-18T13:13:18.718Z,19.71
2018-10-18T13:15:11.609Z,19.68
2018-10-18T13:16:11.593Z,19.71
2018-10-18T13:18:05.073Z,19.72
2018-10-18T13:19:04.973Z,19.72
2018-10-18T13:20:57.870Z,19.71
2018-10-18T13:21:57.844Z,19.71
2018-10-18T13:23:50.748Z,19.60
2018-10-18T13:24:50.721Z,19.53
2018-10-18T13:26:43.626Z,19.30
2018-10-18T13:27:43.606Z,19.31
2018-10-18T13:29:36.517Z,19.30
2018-10-18T13:30:36.485Z,19.31
2018-10-18T13:32:29.879Z,19.30
2018-10-18T13:33:29.858Z,19.26
2018-10-18T13:35:23.256Z,19.20
2018-10-18T13:36:23.233Z,19.17
2018-10-18T13:38:16.202Z,19.23
2018-10-18T13:39:16.165Z,19.19
2018-10-18T13:41:09.525Z,19.20
2018-10-18T13:42:09.509Z,19.17
2018-10-18T13:44:02.911Z,19.17
2018-10-18T13:45:02.858Z,19.31
2018-10-18T13:46:55.759Z,19.26
2018-10-18T13:47:55.746Z,19.19
2018-10-18T13:49:48.645Z,19.17
2018-10-18T13:50:48.618Z,19.24
2018-10-18T13:52:42.010Z,19.24
2018-10-18T13:53:41.986Z,19.16
2018-10-18T13:55:34.892Z,19.27
2018-10-18T13:56:34.866Z,19.31
2018-10-18T13:58:27.761Z,19.30
2018-10-18T13:59:27.816Z,19.32
2018-10-18T14:01:21.128Z,19.34
2018-10-18T14:02:21.143Z,19.39
2018-10-18T14:04:14.007Z,19.41
2018-10-18T14:05:14.036Z,19.34
2018-10-18T14:07:06.890Z,19.39
2018-10-18T14:08:06.988Z,19.39
2018-10-18T14:09:59.773Z,19.24
2018-10-18T14:10:59.792Z,19.32
2018-10-18T14:12:53.142Z,19.26
2018-10-18T14:13:53.145Z,19.27
2018-10-18T14:15:46.017Z,19.27
2018-10-18T14:16:45.996Z,19.26
2018-10-18T14:18:39.399Z,19.30
2018-10-18T14:19:39.361Z,19.38
2018-10-18T14:21:32.310Z,19.34
2018-10-18T14:22:32.241Z,19.30
2018-10-18T14:24:25.625Z,19.30
2018-10-18T14:25:25.609Z,19.38
2018-10-18T14:27:18.498Z,19.30
2018-10-18T14:28:18.488Z,19.34
2018-10-18T14:30:12.762Z,19.32
2018-10-18T14:31:12.695Z,19.27
2018-10-18T14:33:06.166Z,19.27
2018-10-18T14:34:05.585Z,19.30
2018-10-18T14:35:58.480Z,19.22
2018-10-18T14:36:58.451Z,19.30
2018-10-18T14:38:51.396Z,19.19
2018-10-18T14:39:51.328Z,19.26
2018-10-18T14:41:44.229Z,19.24
2018-10-18T14:42:44.221Z,19.23
2018-10-18T14:44:37.224Z,19.23
2018-10-18T14:45:37.089Z,19.15
2018-10-18T14:47:30.028Z,19.15
2018-10-18T14:48:29.971Z,19.05
2018-10-18T14:50:23.069Z,19.12
2018-10-18T14:51:22.849Z,19.08
2018-10-18T14:53:15.801Z,19.08
2018-10-18T14:54:15.716Z,19.01
2018-10-18T14:56:08.656Z,19.00
2018-10-18T14:57:08.600Z,19.01
2018-10-18T14:59:02.083Z,18.96
2018-10-18T15:00:01.476Z,18.89
2018-10-18T15:01:54.381Z,18.89
2018-10-18T15:02:54.355Z,18.91
2018-10-18T15:04:47.313Z,18.89
2018-10-18T15:05:47.220Z,18.93
2018-10-18T15:07:40.628Z,18.93
2018-10-18T15:08:40.602Z,18.97
2018-10-18T15:10:34.013Z,18.86
2018-10-18T15:11:33.981Z,18.89
2018-10-18T15:13:26.888Z,18.89
2018-10-18T15:14:26.870Z,18.91
2018-10-18T15:16:19.766Z,18.86
2018-10-18T15:17:19.741Z,18.83
2018-10-18T15:19:12.640Z,18.85
2018-10-18T15:20:12.723Z,18.88
2018-10-18T15:22:05.521Z,18.85
2018-10-18T15:23:05.509Z,18.83
2018-10-18T15:24:58.429Z,18.85
2018-10-18T15:25:58.529Z,18.78
2018-10-18T15:27:51.514Z,18.71
2018-10-18T15:28:51.243Z,18.67
2018-10-18T15:30:44.139Z,18.74
2018-10-18T15:31:44.169Z,18.75
2018-10-18T15:33:37.009Z,18.70
2018-10-18T15:34:36.994Z,18.74
2018-10-18T15:36:30.394Z,18.66
2018-10-18T15:37:30.368Z,18.64
2018-10-18T15:39:23.309Z,18.68
2018-10-18T15:40:23.243Z,18.66
2018-10-18T15:42:16.708Z,18.64
2018-10-18T15:43:16.116Z,18.70
2018-10-18T15:45:09.136Z,18.64
2018-10-18T15:46:09.001Z,18.64
2018-10-18T15:48:01.894Z,18.67
2018-10-18T15:49:01.880Z,18.57
2018-10-18T15:50:55.303Z,18.54
2018-10-18T15:51:55.246Z,18.61
2018-10-18T15:53:48.143Z,18.63
2018-10-18T15:54:48.151Z,18.61
2018-10-18T15:56:41.510Z,18.58
2018-10-18T15:57:41.493Z,18.57
2018-10-18T15:59:34.930Z,18.61
2018-10-18T16:00:34.371Z,18.56
2018-10-18T16:02:27.288Z,18.54
2018-10-18T16:03:27.240Z,18.54
2018-10-18T16:05:20.629Z,18.57
2018-10-18T16:06:20.697Z,18.52
2018-10-18T16:08:13.501Z,18.56
2018-10-18T16:09:13.479Z,18.52
2018-10-18T16:11:06.874Z,18.45
2018-10-18T16:12:06.841Z,18.46
2018-10-18T16:14:00.293Z,18.39
2018-10-18T16:15:00.210Z,18.39
2018-10-18T16:16:53.107Z,18.26
2018-10-18T16:17:53.172Z,18.24
2018-10-18T16:19:45.973Z,18.18
2018-10-18T16:20:45.949Z,18.13
2018-10-18T16:22:39.355Z,18.06
2018-10-18T16:23:39.318Z,18.11
2018-10-18T16:25:32.702Z,18.05
2018-10-18T16:26:32.794Z,18.08
2018-10-18T16:28:26.077Z,18.01
2018-10-18T16:29:26.064Z,17.96
2018-10-18T16:31:18.957Z,17.86
2018-10-18T16:32:18.986Z,17.87
2018-10-18T16:34:12.321Z,17.81
2018-10-18T16:35:12.417Z,17.83
2018-10-18T16:37:05.697Z,17.84
2018-10-18T16:38:05.745Z,17.73
2018-10-18T16:39:58.573Z,17.73
2018-10-18T16:40:58.622Z,17.81
2018-10-18T16:42:51.451Z,17.84
2018-10-18T16:43:51.428Z,17.79
2018-10-18T16:45:44.811Z,17.83
2018-10-18T16:46:44.789Z,17.84
2018-10-18T16:48:38.178Z,17.76
2018-10-18T16:49:38.156Z,17.76
2018-10-18T16:51:31.040Z,17.78
2018-10-18T16:52:31.019Z,17.79
2018-10-18T16:54:24.454Z,17.84
2018-10-18T16:55:24.380Z,17.78
2018-10-18T16:57:17.768Z,17.81
2018-10-18T16:58:17.810Z,17.75
2018-10-18T17:00:11.205Z,17.75
2018-10-18T17:01:11.133Z,17.84
2018-10-18T17:03:04.018Z,17.69
2018-10-18T17:04:04.119Z,17.65
2018-10-18T17:05:57.417Z,17.68
2018-10-18T17:06:57.384Z,17.62
2018-10-18T17:08:50.266Z,17.59
2018-10-18T17:09:50.224Z,17.69
2018-10-18T17:11:43.619Z,17.53
2018-10-18T17:12:43.600Z,17.59
2018-10-18T17:14:36.496Z,17.46
2018-10-18T17:15:36.471Z,17.41
2018-10-18T17:17:29.855Z,17.35
2018-10-18T17:18:29.905Z,17.35
2018-10-18T17:20:22.805Z,17.32
2018-10-18T17:21:22.713Z,17.22
2018-10-18T17:23:16.718Z,17.31
2018-10-18T17:24:16.702Z,17.22
2018-10-18T17:26:10.043Z,17.06
2018-10-18T17:27:10.056Z,17.10
2018-10-18T17:29:03.380Z,16.94
2018-10-18T17:30:03.380Z,17.10
2018-10-18T17:31:56.251Z,16.99
2018-10-18T17:32:56.259Z,16.99
2018-10-18T17:34:50.649Z,16.92
2018-10-18T17:35:49.588Z,16.97
2018-10-18T17:37:42.977Z,16.90
2018-10-18T17:38:42.963Z,16.74
2018-10-18T17:40:35.897Z,16.77
2018-10-18T17:41:35.828Z,16.77
2018-10-18T17:43:29.208Z,16.74
2018-10-18T17:44:29.173Z,16.67
2018-10-18T17:46:22.074Z,16.62
2018-10-18T17:47:22.159Z,16.51
2018-10-18T17:49:15.444Z,16.58
2018-10-18T17:50:15.531Z,16.51
2018-10-18T17:52:08.857Z,16.51
2018-10-18T17:53:08.814Z,16.59
2018-10-18T17:55:02.201Z,16.46
2018-10-18T17:56:02.264Z,16.34
2018-10-18T17:57:55.109Z,16.36
2018-10-18T17:58:55.043Z,16.43
2018-10-18T18:00:47.940Z,16.36
2018-10-18T18:01:47.914Z,16.36
2018-10-18T18:03:41.378Z,16.26
2018-10-18T18:04:40.784Z,16.28
2018-10-18T18:06:34.272Z,16.16
2018-10-18T18:07:34.163Z,16.18
2018-10-18T18:09:27.224Z,16.13
2018-10-18T18:10:27.119Z,16.02
2018-10-18T18:12:20.009Z,16.00
2018-10-18T18:13:19.975Z,15.96
2018-10-18T18:15:13.364Z,15.87
2018-10-18T18:16:13.356Z,15.91
2018-10-18T18:18:06.236Z,15.73
2018-10-18T18:19:06.205Z,15.72
2018-10-18T18:20:59.092Z,15.78
2018-10-18T18:21:59.124Z,15.76
2018-10-18T18:23:51.982Z,15.72
2018-10-18T18:24:51.940Z,15.68
2018-10-18T18:26:45.500Z,15.73
2018-10-18T18:27:44.808Z,15.70
2018-10-18T18:29:37.710Z,15.73
2018-10-18T18:30:37.675Z,15.69
2018-10-18T18:32:30.573Z,15.58
2018-10-18T18:33:30.545Z,15.59